Detall de PIREP

Printer-friendly versionPDF version

[2017/08/06 05:09:00]
Flight IATA:CT2102
Pilot Number:041
Company ICAO:CAT
Aircraft Type:B738/F
PAX:119
Departing Airport: LEVC
Destination Airport: LEAM
Alternate Airport:LEMD
Online: VATSIM
Route:ASTRO B28 YES G53 RISPO
Flight Level:FL230
No Slew and time accel
No pause
Crash detect
Detect pilot in Cockpit between each 30 and 45 minutes
05:09 Zero fuel Weight: 135600 Lbs, Fuel Weight: 11047 Lbs
05:09 VATSIM:LEVC 060430Z 32006KT 9999 BKN020 25/23 Q1014 NOSIG
05:09 VATSIM:LEAM 060430Z 00000KT CAVOK 25/21 Q1013
05:09 VOICE CATALONIAN
05:20 Parking Brakes off
05:26 Take-off
05:26 Take off Weight: 145821 Lbs
05:26 Wind: 073º @ 001 Knots Heading: 296º
05:26 POS N39º 29´ 37´´ W000º 29´ 37´´
05:26 Gear Up: 176 Knots
05:26 Flaps:3 at 177 Knots
05:26 Flaps:2 at 171 Knots
05:27 Flaps:1 at 188 Knots
05:27 Flaps:0 at 205 Knots
05:35 TOC
05:35 Fuel Weight: 7937 Lb
05:41 Wind:270º@023 Knots Heading: 234º Ground Speed: 406 Knots Altitude 23005 ft
05:49 TOD
05:49 Fuel Weight: 6471 Lb
05:56 Wind:214º@003 Knots Heading: 177º Ground Speed: 319 Knots Altitude 10311 ft
06:04 Flaps:1 at 230 Knots
06:04 Flaps:2 at 234 Knots
06:07 Flaps:3 at 236 Knots
06:08 Flaps:4 at 239 Knots
06:09 Flaps:5 at 205 Knots
06:09 Flaps:6 at 175 Knots
06:09 Gear Down: 169 Knots
06:09 Flaps:7 at 154 Knots
06:10 Flaps:8 at 150 Knots
06:11 Wind:193º@008 Knots Heading: 250º Ground Speed: 141 Knots Altitude 1230 ft
06:12 TouchDown:Rate -146 ft/min Speed: 130 Knots
06:13 VATSIM:LEAM 060530Z VRB02KT CAVOK 25/23 Q1013
06:13 Land
06:13 Wind:193º@008 Knots
06:13 Heading: 252º
06:13 Flight Duration: 00:47
06:13 Landing Weight: 140637 Lbs
06:13 POS N36º 50´ 36´´ W002º 22´ 18´´
06:20 Parking brakes on
06:20 Block to Block Duration: 01:00
06:20 Final Fuel: 4473 Lbls
06:20 Spent Fuel: 6574 Lbls
06:20 Flight Length: 250 NM
06:20 TOD Land Length: 106 NM

Exportar CSV

Powered by Drupal - Modified by Danger4k